Terminal Aerodrome Forecast
Issued by NWS

Home | Current Version | Previous Version | Text Only | Print | Product List | Glossary On
Versions: 1 2 3 4 5 6 7 8 9 10 11 12 13 14
245
FTUS42 KMLB 201200 AAA
TAFLEE
TAF AMD
KLEE 201200Z 2012/2112 02008KT P6SM SCT035
     FM201800 05013G21KT P6SM SCT025 BKN060
     FM210200 04010KT P6SM SCT015 BKN040=

USA.gov is the U.S. government's official web portal to all federal, state and local government web resources and services.